sensor_id;sensor_type;location;lat;lon;timestamp;temperature;humidity
21282;DHT22;10800;53.096;18.328;2023-04-15T00:04:50;9.60;99.90
21282;DHT22;10800;53.096;18.328;2023-04-15T00:09:55;9.50;99.90
21282;DHT22;10800;53.096;18.328;2023-04-15T00:15:01;9.60;99.90
21282;DHT22;10800;53.096;18.328;2023-04-15T00:20:08;9.50;99.90
21282;DHT22;10800;53.096;18.328;2023-04-15T00:25:14;9.50;99.90
21282;DHT22;10800;53.096;18.328;2023-04-15T00:30:19;9.40;99.90
21282;DHT22;10800;53.096;18.328;2023-04-15T00:35:26;9.40;99.90
21282;DHT22;10800;53.096;18.328;2023-04-15T00:40:32;9.40;99.90
21282;DHT22;10800;53.096;18.328;2023-04-15T00:45:37;9.30;99.90
21282;DHT22;10800;53.096;18.328;2023-04-15T00:50:43;9.30;99.90
21282;DHT22;10800;53.096;18.328;2023-04-15T00:55:48;9.30;99.90
21282;DHT22;10800;53.096;18.328;2023-04-15T01:00:55;9.30;99.90
21282;DHT22;10800;53.096;18.328;2023-04-15T01:06:01;9.30;99.90
21282;DHT22;10800;53.096;18.328;2023-04-15T01:11:07;9.30;99.90
21282;DHT22;10800;53.096;18.328;2023-04-15T01:16:14;9.40;99.90
21282;DHT22;10800;53.096;18.328;2023-04-15T01:21:21;9.30;99.90
21282;DHT22;10800;53.096;18.328;2023-04-15T01:26:27;9.30;99.90
21282;DHT22;10800;53.096;18.328;2023-04-15T01:31:33;9.30;99.90
21282;DHT22;10800;53.096;18.328;2023-04-15T01:36:39;9.30;99.90
21282;DHT22;10800;53.096;18.328;2023-04-15T01:41:45;9.30;99.90
21282;DHT22;10800;53.096;18.328;2023-04-15T01:46:51;9.30;99.90
21282;DHT22;10800;53.096;18.328;2023-04-15T01:51:56;9.30;99.90
21282;DHT22;10800;53.096;18.328;2023-04-15T01:57:01;9.20;99.90
21282;DHT22;10800;53.096;18.328;2023-04-15T02:02:07;9.10;99.90
21282;DHT22;10800;53.096;18.328;2023-04-15T02:07:12;9.10;99.90
21282;DHT22;10800;53.096;18.328;2023-04-15T02:12:17;9.10;99.90
21282;DHT22;10800;53.096;18.328;2023-04-15T02:17:22;9.20;99.90
21282;DHT22;10800;53.096;18.328;2023-04-15T02:22:28;9.30;99.90
21282;DHT22;10800;53.096;18.328;2023-04-15T02:27:35;9.40;99.90
21282;DHT22;10800;53.096;18.328;2023-04-15T02:32:40;9.50;99.90
21282;DHT22;10800;53.096;18.328;2023-04-15T02:37:47;9.50;99.90
21282;DHT22;10800;53.096;18.328;2023-04-15T02:42:53;9.60;99.90
21282;DHT22;10800;53.096;18.328;2023-04-15T02:47:58;9.70;99.90
21282;DHT22;10800;53.096;18.328;2023-04-15T02:53:05;9.70;99.90
21282;DHT22;10800;53.096;18.328;2023-04-15T02:58:10;9.70;99.90
21282;DHT22;10800;53.096;18.328;2023-04-15T03:03:15;9.90;99.90
21282;DHT22;10800;53.096;18.328;2023-04-15T03:08:21;9.90;99.90
21282;DHT22;10800;53.096;18.328;2023-04-15T03:13:26;10.00;99.90
21282;DHT22;10800;53.096;18.328;2023-04-15T03:18:31;10.00;99.90
21282;DHT22;10800;53.096;18.328;2023-04-15T03:23:38;10.10;99.90
21282;DHT22;10800;53.096;18.328;2023-04-15T03:28:43;10.10;99.90
21282;DHT22;10800;53.096;18.328;2023-04-15T03:33:48;10.10;99.90
21282;DHT22;10800;53.096;18.328;2023-04-15T03:38:54;10.20;99.90
21282;DHT22;10800;53.096;18.328;2023-04-15T03:43:59;10.20;99.90
21282;DHT22;10800;53.096;18.328;2023-04-15T03:49:06;10.20;99.90
21282;DHT22;10800;53.096;18.328;2023-04-15T03:54:11;10.30;99.90
21282;DHT22;10800;53.096;18.328;2023-04-15T03:59:18;10.30;99.90
21282;DHT22;10800;53.096;18.328;2023-04-15T04:04:24;10.30;99.90
21282;DHT22;10800;53.096;18.328;2023-04-15T04:09:30;10.40;99.90
21282;DHT22;10800;53.096;18.328;2023-04-15T04:14:35;10.40;99.90
21282;DHT22;10800;53.096;18.328;2023-04-15T04:19:40;10.40;99.90
21282;DHT22;10800;53.096;18.328;2023-04-15T04:24:46;10.40;99.90
21282;DHT22;10800;53.096;18.328;2023-04-15T04:29:51;10.40;99.90
21282;DHT22;10800;53.096;18.328;2023-04-15T04:34:56;10.40;99.90
21282;DHT22;10800;53.096;18.328;2023-04-15T04:40:01;10.40;99.90
21282;DHT22;10800;53.096;18.328;2023-04-15T04:45:08;10.40;99.90
21282;DHT22;10800;53.096;18.328;2023-04-15T04:50:13;10.50;99.90
21282;DHT22;10800;53.096;18.328;2023-04-15T04:55:19;10.60;99.90
21282;DHT22;10800;53.096;18.328;2023-04-15T05:00:24;10.60;99.90
21282;DHT22;10800;53.096;18.328;2023-04-15T05:05:30;10.60;99.90
21282;DHT22;10800;53.096;18.328;2023-04-15T05:10:35;10.60;99.90
21282;DHT22;10800;53.096;18.328;2023-04-15T05:15:40;10.60;99.90
21282;DHT22;10800;53.096;18.328;2023-04-15T05:20:46;10.60;99.90
21282;DHT22;10800;53.096;18.328;2023-04-15T05:25:53;10.60;99.90
21282;DHT22;10800;53.096;18.328;2023-04-15T05:30:58;10.60;99.90
21282;DHT22;10800;53.096;18.328;2023-04-15T05:36:11;10.50;99.90
21282;DHT22;10800;53.096;18.328;2023-04-15T05:41:19;10.40;99.90
21282;DHT22;10800;53.096;18.328;2023-04-15T05:46:25;10.30;99.90
21282;DHT22;10800;53.096;18.328;2023-04-15T05:51:30;10.30;99.90
21282;DHT22;10800;53.096;18.328;2023-04-15T05:56:36;10.20;99.90
21282;DHT22;10800;53.096;18.328;2023-04-15T06:01:42;10.00;99.90
21282;DHT22;10800;53.096;18.328;2023-04-15T06:06:48;10.00;99.90
21282;DHT22;10800;53.096;18.328;2023-04-15T06:11:54;9.90;99.90
21282;DHT22;10800;53.096;18.328;2023-04-15T06:17:00;9.90;99.90
21282;DHT22;10800;53.096;18.328;2023-04-15T06:22:06;9.80;99.90
21282;DHT22;10800;53.096;18.328;2023-04-15T06:27:12;9.80;99.90
21282;DHT22;10800;53.096;18.328;2023-04-15T06:32:17;9.70;99.90
21282;DHT22;10800;53.096;18.328;2023-04-15T06:37:22;9.70;99.90
21282;DHT22;10800;53.096;18.328;2023-04-15T06:42:28;9.80;99.90
21282;DHT22;10800;53.096;18.328;2023-04-15T06:47:34;9.80;99.90
21282;DHT22;10800;53.096;18.328;2023-04-15T06:52:39;9.80;99.90
21282;DHT22;10800;53.096;18.328;2023-04-15T06:57:44;9.80;99.90
21282;DHT22;10800;53.096;18.328;2023-04-15T07:02:51;9.80;99.90
21282;DHT22;10800;53.096;18.328;2023-04-15T07:07:58;9.90;99.90
21282;DHT22;10800;53.096;18.328;2023-04-15T07:13:04;10.00;99.90
21282;DHT22;10800;53.096;18.328;2023-04-15T07:18:11;10.10;99.90
21282;DHT22;10800;53.096;18.328;2023-04-15T07:23:17;10.00;99.90
21282;DHT22;10800;53.096;18.328;2023-04-15T07:28:22;10.00;99.90
21282;DHT22;10800;53.096;18.328;2023-04-15T07:33:28;10.10;99.90
21282;DHT22;10800;53.096;18.328;2023-04-15T07:38:33;10.10;99.90
21282;DHT22;10800;53.096;18.328;2023-04-15T07:43:38;10.20;99.90
21282;DHT22;10800;53.096;18.328;2023-04-15T07:48:44;10.10;99.90
21282;DHT22;10800;53.096;18.328;2023-04-15T07:53:49;10.30;99.90
21282;DHT22;10800;53.096;18.328;2023-04-15T07:58:55;10.30;99.90
21282;DHT22;10800;53.096;18.328;2023-04-15T08:04:00;10.30;99.90
21282;DHT22;10800;53.096;18.328;2023-04-15T08:09:07;10.30;99.90
21282;DHT22;10800;53.096;18.328;2023-04-15T08:14:12;10.30;99.90
21282;DHT22;10800;53.096;18.328;2023-04-15T08:19:17;10.40;99.90
21282;DHT22;10800;53.096;18.328;2023-04-15T08:24:24;10.50;99.90
21282;DHT22;10800;53.096;18.328;2023-04-15T08:29:31;10.50;99.90
21282;DHT22;10800;53.096;18.328;2023-04-15T08:34:38;10.40;99.90
21282;DHT22;10800;53.096;18.328;2023-04-15T08:39:44;10.40;99.90
21282;DHT22;10800;53.096;18.328;2023-04-15T08:44:54;10.40;99.90
21282;DHT22;10800;53.096;18.328;2023-04-15T08:50:02;10.40;99.90
21282;DHT22;10800;53.096;18.328;2023-04-15T08:55:08;10.50;99.90
21282;DHT22;10800;53.096;18.328;2023-04-15T09:00:15;10.50;99.90
21282;DHT22;10800;53.096;18.328;2023-04-15T09:05:21;10.60;99.90
21282;DHT22;10800;53.096;18.328;2023-04-15T09:10:27;10.60;99.90
21282;DHT22;10800;53.096;18.328;2023-04-15T09:15:36;10.60;99.90
21282;DHT22;10800;53.096;18.328;2023-04-15T09:20:42;10.70;99.90
21282;DHT22;10800;53.096;18.328;2023-04-15T09:25:48;11.00;99.90
21282;DHT22;10800;53.096;18.328;2023-04-15T09:30:58;11.10;99.90
21282;DHT22;10800;53.096;18.328;2023-04-15T09:36:05;11.10;99.90
21282;DHT22;10800;53.096;18.328;2023-04-15T09:41:17;11.10;99.90
21282;DHT22;10800;53.096;18.328;2023-04-15T09:46:40;11.10;99.90
21282;DHT22;10800;53.096;18.328;2023-04-15T09:51:47;11.10;99.90
21282;DHT22;10800;53.096;18.328;2023-04-15T09:56:54;11.50;99.90
21282;DHT22;10800;53.096;18.328;2023-04-15T10:02:00;11.50;99.90
21282;DHT22;10800;53.096;18.328;2023-04-15T10:07:11;11.20;99.90
21282;DHT22;10800;53.096;18.328;2023-04-15T10:12:19;11.10;99.90
21282;DHT22;10800;53.096;18.328;2023-04-15T10:17:27;11.00;99.90
21282;DHT22;10800;53.096;18.328;2023-04-15T10:22:35;11.00;99.90
21282;DHT22;10800;53.096;18.328;2023-04-15T10:27:44;10.70;99.90
21282;DHT22;10800;53.096;18.328;2023-04-15T10:32:56;10.60;99.90
21282;DHT22;10800;53.096;18.328;2023-04-15T10:38:01;10.70;99.90
21282;DHT22;10800;53.096;18.328;2023-04-15T10:43:15;10.90;99.90
21282;DHT22;10800;53.096;18.328;2023-04-15T10:48:17;10.80;99.90
21282;DHT22;10800;53.096;18.328;2023-04-15T10:53:28;10.90;99.90
21282;DHT22;10800;53.096;18.328;2023-04-15T10:58:42;10.90;99.90
21282;DHT22;10800;53.096;18.328;2023-04-15T11:03:49;10.90;99.90
21282;DHT22;10800;53.096;18.328;2023-04-15T11:24:03;10.60;99.90
21282;DHT22;10800;53.096;18.328;2023-04-15T11:29:16;10.60;99.90
21282;DHT22;10800;53.096;18.328;2023-04-15T11:34:21;10.70;99.90
21282;DHT22;10800;53.096;18.328;2023-04-15T11:39:28;10.70;99.90
21282;DHT22;10800;53.096;18.328;2023-04-15T11:44:34;10.70;99.90
21282;DHT22;10800;53.096;18.328;2023-04-15T11:49:40;10.60;99.90
21282;DHT22;10800;53.096;18.328;2023-04-15T11:54:51;10.70;99.90
21282;DHT22;10800;53.096;18.328;2023-04-15T11:59:56;10.80;99.90
21282;DHT22;10800;53.096;18.328;2023-04-15T12:05:07;10.80;99.90
21282;DHT22;10800;53.096;18.328;2023-04-15T12:10:13;10.80;99.90
21282;DHT22;10800;53.096;18.328;2023-04-15T12:15:22;10.90;99.90
21282;DHT22;10800;53.096;18.328;2023-04-15T12:20:30;11.00;99.90
21282;DHT22;10800;53.096;18.328;2023-04-15T12:25:38;11.10;99.90
21282;DHT22;10800;53.096;18.328;2023-04-15T12:30:53;11.10;99.90
21282;DHT22;10800;53.096;18.328;2023-04-15T12:35:58;10.90;99.90
21282;DHT22;10800;53.096;18.328;2023-04-15T12:41:06;11.00;99.90
21282;DHT22;10800;53.096;18.328;2023-04-15T12:46:12;11.00;99.90
21282;DHT22;10800;53.096;18.328;2023-04-15T12:51:19;10.80;99.90
21282;DHT22;10800;53.096;18.328;2023-04-15T12:56:36;11.00;99.90
21282;DHT22;10800;53.096;18.328;2023-04-15T13:01:53;11.00;99.90
21282;DHT22;10800;53.096;18.328;2023-04-15T13:07:09;11.10;99.90
21282;DHT22;10800;53.096;18.328;2023-04-15T13:12:16;11.20;99.90
21282;DHT22;10800;53.096;18.328;2023-04-15T13:17:22;11.30;99.90
21282;DHT22;10800;53.096;18.328;2023-04-15T13:22:27;11.40;99.90
21282;DHT22;10800;53.096;18.328;2023-04-15T13:27:53;11.20;99.90
21282;DHT22;10800;53.096;18.328;2023-04-15T13:33:06;11.20;99.90
21282;DHT22;10800;53.096;18.328;2023-04-15T13:38:12;11.20;99.90
21282;DHT22;10800;53.096;18.328;2023-04-15T13:43:31;11.20;99.90
21282;DHT22;10800;53.096;18.328;2023-04-15T13:48:37;11.30;99.90
21282;DHT22;10800;53.096;18.328;2023-04-15T13:53:46;11.20;99.90
21282;DHT22;10800;53.096;18.328;2023-04-15T13:58:51;11.20;99.90
21282;DHT22;10800;53.096;18.328;2023-04-15T14:04:00;11.20;99.90
21282;DHT22;10800;53.096;18.328;2023-04-15T14:09:05;11.30;99.90
21282;DHT22;10800;53.096;18.328;2023-04-15T14:14:10;11.20;99.90
21282;DHT22;10800;53.096;18.328;2023-04-15T14:19:20;11.20;99.90
21282;DHT22;10800;53.096;18.328;2023-04-15T14:24:26;11.10;99.90
21282;DHT22;10800;53.096;18.328;2023-04-15T14:29:33;11.00;99.90
21282;DHT22;10800;53.096;18.328;2023-04-15T14:34:49;10.90;99.90
21282;DHT22;10800;53.096;18.328;2023-04-15T14:39:55;11.00;99.90
21282;DHT22;10800;53.096;18.328;2023-04-15T14:45:18;11.10;99.90
21282;DHT22;10800;53.096;18.328;2023-04-15T14:50:29;11.10;99.90
21282;DHT22;10800;53.096;18.328;2023-04-15T14:55:56;11.10;99.90
21282;DHT22;10800;53.096;18.328;2023-04-15T15:01:08;11.30;99.90
21282;DHT22;10800;53.096;18.328;2023-04-15T15:06:26;11.30;99.90
21282;DHT22;10800;53.096;18.328;2023-04-15T15:11:34;11.20;99.90
21282;DHT22;10800;53.096;18.328;2023-04-15T15:17:23;11.20;99.90
21282;DHT22;10800;53.096;18.328;2023-04-15T15:23:07;11.10;99.90
21282;DHT22;10800;53.096;18.328;2023-04-15T15:28:12;11.10;99.90
21282;DHT22;10800;53.096;18.328;2023-04-15T15:33:19;11.20;99.90
21282;DHT22;10800;53.096;18.328;2023-04-15T15:38:24;11.30;99.90
21282;DHT22;10800;53.096;18.328;2023-04-15T15:43:30;11.40;99.90
21282;DHT22;10800;53.096;18.328;2023-04-15T15:48:37;11.40;99.90
21282;DHT22;10800;53.096;18.328;2023-04-15T15:53:43;11.30;99.90
21282;DHT22;10800;53.096;18.328;2023-04-15T15:58:49;11.20;99.90
21282;DHT22;10800;53.096;18.328;2023-04-15T16:04:10;11.10;99.90
21282;DHT22;10800;53.096;18.328;2023-04-15T16:09:24;11.00;99.90
21282;DHT22;10800;53.096;18.328;2023-04-15T16:14:38;11.00;99.90
21282;DHT22;10800;53.096;18.328;2023-04-15T16:19:44;10.90;99.90
21282;DHT22;10800;53.096;18.328;2023-04-15T16:24:52;10.90;99.90
21282;DHT22;10800;53.096;18.328;2023-04-15T16:30:00;10.90;99.90
21282;DHT22;10800;53.096;18.328;2023-04-15T16:35:05;10.90;99.90
21282;DHT22;10800;53.096;18.328;2023-04-15T16:40:13;10.90;99.90
21282;DHT22;10800;53.096;18.328;2023-04-15T16:45:25;10.90;99.90
21282;DHT22;10800;53.096;18.328;2023-04-15T16:51:04;10.80;99.90
21282;DHT22;10800;53.096;18.328;2023-04-15T16:56:24;10.80;99.90
21282;DHT22;10800;53.096;18.328;2023-04-15T17:01:47;10.70;99.90
21282;DHT22;10800;53.096;18.328;2023-04-15T17:07:21;10.70;99.90
21282;DHT22;10800;53.096;18.328;2023-04-15T17:12:39;10.60;99.90
21282;DHT22;10800;53.096;18.328;2023-04-15T17:18:12;10.60;99.90
21282;DHT22;10800;53.096;18.328;2023-04-15T17:23:24;10.50;99.90
21282;DHT22;10800;53.096;18.328;2023-04-15T17:28:35;10.50;99.90
21282;DHT22;10800;53.096;18.328;2023-04-15T17:33:47;10.40;99.90
21282;DHT22;10800;53.096;18.328;2023-04-15T17:38:55;10.30;99.90
21282;DHT22;10800;53.096;18.328;2023-04-15T17:44:06;10.30;99.90
21282;DHT22;10800;53.096;18.328;2023-04-15T17:49:39;10.20;99.90
21282;DHT22;10800;53.096;18.328;2023-04-15T17:55:37;10.20;99.90
21282;DHT22;10800;53.096;18.328;2023-04-15T18:01:22;10.10;99.90
21282;DHT22;10800;53.096;18.328;2023-04-15T18:06:29;10.00;99.90
21282;DHT22;10800;53.096;18.328;2023-04-15T18:12:02;10.10;99.90
21282;DHT22;10800;53.096;18.328;2023-04-15T18:17:27;10.00;99.90
21282;DHT22;10800;53.096;18.328;2023-04-15T18:22:59;10.00;99.90
21282;DHT22;10800;53.096;18.328;2023-04-15T18:28:17;10.00;99.90
21282;DHT22;10800;53.096;18.328;2023-04-15T18:33:53;9.90;99.90
21282;DHT22;10800;53.096;18.328;2023-04-15T18:39:22;9.90;99.90
21282;DHT22;10800;53.096;18.328;2023-04-15T18:44:35;10.00;99.90
21282;DHT22;10800;53.096;18.328;2023-04-15T18:50:07;10.00;99.90
21282;DHT22;10800;53.096;18.328;2023-04-15T18:55:19;10.00;99.90
21282;DHT22;10800;53.096;18.328;2023-04-15T19:00:32;10.00;99.90
21282;DHT22;10800;53.096;18.328;2023-04-15T19:05:53;9.90;99.90
21282;DHT22;10800;53.096;18.328;2023-04-15T19:11:01;10.00;99.90
21282;DHT22;10800;53.096;18.328;2023-04-15T19:16:36;10.00;99.90
21282;DHT22;10800;53.096;18.328;2023-04-15T19:21:52;9.90;99.90
21282;DHT22;10800;53.096;18.328;2023-04-15T19:26:57;9.90;99.90
21282;DHT22;10800;53.096;18.328;2023-04-15T19:32:03;9.90;99.90
21282;DHT22;10800;53.096;18.328;2023-04-15T19:37:11;9.80;99.90
21282;DHT22;10800;53.096;18.328;2023-04-15T19:42:23;9.90;99.90
21282;DHT22;10800;53.096;18.328;2023-04-15T19:47:47;9.90;99.90
21282;DHT22;10800;53.096;18.328;2023-04-15T19:53:04;9.90;99.90
21282;DHT22;10800;53.096;18.328;2023-04-15T19:58:21;9.80;99.90
21282;DHT22;10800;53.096;18.328;2023-04-15T20:03:47;9.80;99.90
21282;DHT22;10800;53.096;18.328;2023-04-15T20:09:15;9.80;99.90
21282;DHT22;10800;53.096;18.328;2023-04-15T20:14:36;9.80;99.90
21282;DHT22;10800;53.096;18.328;2023-04-15T20:20:06;9.70;99.90
21282;DHT22;10800;53.096;18.328;2023-04-15T20:25:13;9.70;99.90
21282;DHT22;10800;53.096;18.328;2023-04-15T20:30:18;9.70;99.90
21282;DHT22;10800;53.096;18.328;2023-04-15T20:35:26;9.70;99.90
21282;DHT22;10800;53.096;18.328;2023-04-15T20:40:33;9.60;99.90
21282;DHT22;10800;53.096;18.328;2023-04-15T20:45:43;9.50;99.90
21282;DHT22;10800;53.096;18.328;2023-04-15T20:51:11;9.50;99.90
21282;DHT22;10800;53.096;18.328;2023-04-15T20:57:01;9.50;99.90
21282;DHT22;10800;53.096;18.328;2023-04-15T21:02:19;9.50;99.90
21282;DHT22;10800;53.096;18.328;2023-04-15T21:07:44;9.50;99.90
21282;DHT22;10800;53.096;18.328;2023-04-15T21:13:18;9.50;99.90
21282;DHT22;10800;53.096;18.328;2023-04-15T21:18:45;9.50;99.90
21282;DHT22;10800;53.096;18.328;2023-04-15T21:23:58;9.40;99.90
21282;DHT22;10800;53.096;18.328;2023-04-15T21:29:10;9.50;99.90
21282;DHT22;10800;53.096;18.328;2023-04-15T21:34:38;9.40;99.90
21282;DHT22;10800;53.096;18.328;2023-04-15T21:39:52;9.50;99.90
21282;DHT22;10800;53.096;18.328;2023-04-15T21:45:00;9.50;99.90
21282;DHT22;10800;53.096;18.328;2023-04-15T21:50:23;9.40;99.90
21282;DHT22;10800;53.096;18.328;2023-04-15T21:55:38;9.50;99.90
21282;DHT22;10800;53.096;18.328;2023-04-15T22:01:02;9.40;99.90
21282;DHT22;10800;53.096;18.328;2023-04-15T22:06:20;9.40;99.90
21282;DHT22;10800;53.096;18.328;2023-04-15T22:11:28;9.40;99.90
21282;DHT22;10800;53.096;18.328;2023-04-15T22:16:40;9.40;99.90
21282;DHT22;10800;53.096;18.328;2023-04-15T22:21:54;9.40;99.90
21282;DHT22;10800;53.096;18.328;2023-04-15T22:27:07;9.40;99.90
21282;DHT22;10800;53.096;18.328;2023-04-15T22:32:27;9.40;99.90
21282;DHT22;10800;53.096;18.328;2023-04-15T22:37:44;9.40;99.90
21282;DHT22;10800;53.096;18.328;2023-04-15T22:43:07;9.40;99.90
21282;DHT22;10800;53.096;18.328;2023-04-15T22:48:32;9.30;99.90
21282;DHT22;10800;53.096;18.328;2023-04-15T22:53:57;9.30;99.90
21282;DHT22;10800;53.096;18.328;2023-04-15T22:59:26;9.30;99.90
21282;DHT22;10800;53.096;18.328;2023-04-15T23:04:56;9.30;99.90
21282;DHT22;10800;53.096;18.328;2023-04-15T23:10:46;9.30;99.90
21282;DHT22;10800;53.096;18.328;2023-04-15T23:16:17;9.40;99.90
21282;DHT22;10800;53.096;18.328;2023-04-15T23:21:44;9.40;99.90
21282;DHT22;10800;53.096;18.328;2023-04-15T23:27:21;9.30;99.90
21282;DHT22;10800;53.096;18.328;2023-04-15T23:32:34;9.30;99.90
21282;DHT22;10800;53.096;18.328;2023-04-15T23:37:52;9.30;99.90
21282;DHT22;10800;53.096;18.328;2023-04-15T23:43:06;9.30;99.90
21282;DHT22;10800;53.096;18.328;2023-04-15T23:48:29;9.30;99.90
21282;DHT22;10800;53.096;18.328;2023-04-15T23:53:36;9.30;99.90
21282;DHT22;10800;53.096;18.328;2023-04-15T23:58:49;9.20;99.90
